sensor_id;sensor_type;location;lat;lon;timestamp;temperature;humidity
21189;DHT22;39071;52.420;20.896;2022-10-13T00:01:26;6.90;1.00
21189;DHT22;39071;52.420;20.896;2022-10-13T00:03:52;6.80;1.00
21189;DHT22;39071;52.420;20.896;2022-10-13T00:06:21;6.80;1.00
21189;DHT22;39071;52.420;20.896;2022-10-13T00:08:47;6.80;1.00
21189;DHT22;39071;52.420;20.896;2022-10-13T00:11:16;6.70;1.00
21189;DHT22;39071;52.420;20.896;2022-10-13T00:13:43;6.70;1.00
21189;DHT22;39071;52.420;20.896;2022-10-13T00:16:11;6.70;1.00
21189;DHT22;39071;52.420;20.896;2022-10-13T00:18:39;6.60;1.00
21189;DHT22;39071;52.420;20.896;2022-10-13T00:21:10;6.50;1.00
21189;DHT22;39071;52.420;20.896;2022-10-13T00:23:36;6.50;1.00
21189;DHT22;39071;52.420;20.896;2022-10-13T00:26:05;6.50;1.00
21189;DHT22;39071;52.420;20.896;2022-10-13T00:28:32;6.50;99.90
21189;DHT22;39071;52.420;20.896;2022-10-13T00:30:57;6.40;99.90
21189;DHT22;39071;52.420;20.896;2022-10-13T00:33:23;6.30;1.00
21189;DHT22;39071;52.420;20.896;2022-10-13T00:35:49;6.30;1.00
21189;DHT22;39071;52.420;20.896;2022-10-13T00:38:17;6.20;1.00
21189;DHT22;39071;52.420;20.896;2022-10-13T00:40:52;6.20;1.00
21189;DHT22;39071;52.420;20.896;2022-10-13T00:43:29;6.20;1.00
21189;DHT22;39071;52.420;20.896;2022-10-13T00:46:12;6.10;1.00
21189;DHT22;39071;52.420;20.896;2022-10-13T00:48:39;6.10;1.00
21189;DHT22;39071;52.420;20.896;2022-10-13T00:51:05;6.10;99.90
21189;DHT22;39071;52.420;20.896;2022-10-13T00:53:34;6.10;99.90
21189;DHT22;39071;52.420;20.896;2022-10-13T00:56:00;6.00;99.90
21189;DHT22;39071;52.420;20.896;2022-10-13T00:58:27;6.00;1.00
21189;DHT22;39071;52.420;20.896;2022-10-13T01:00:58;6.00;99.90
21189;DHT22;39071;52.420;20.896;2022-10-13T01:03:25;6.00;99.90
21189;DHT22;39071;52.420;20.896;2022-10-13T01:05:52;5.90;99.90
21189;DHT22;39071;52.420;20.896;2022-10-13T01:08:20;5.90;99.90
21189;DHT22;39071;52.420;20.896;2022-10-13T01:13:48;5.70;99.90
21189;DHT22;39071;52.420;20.896;2022-10-13T01:30:21;5.50;99.90
21189;DHT22;39071;52.420;20.896;2022-10-13T01:45:58;5.20;1.00
21189;DHT22;39071;52.420;20.896;2022-10-13T01:48:26;5.10;1.00
21189;DHT22;39071;52.420;20.896;2022-10-13T01:50:54;5.10;1.00
21189;DHT22;39071;52.420;20.896;2022-10-13T01:53:20;5.10;1.00
21189;DHT22;39071;52.420;20.896;2022-10-13T01:55:57;5.10;1.00
21189;DHT22;39071;52.420;20.896;2022-10-13T01:58:27;5.10;1.00
21189;DHT22;39071;52.420;20.896;2022-10-13T02:01:23;5.00;1.00
21189;DHT22;39071;52.420;20.896;2022-10-13T02:03:56;5.00;99.90
21189;DHT22;39071;52.420;20.896;2022-10-13T02:06:46;5.00;1.00
21189;DHT22;39071;52.420;20.896;2022-10-13T02:09:53;5.00;1.00
21189;DHT22;39071;52.420;20.896;2022-10-13T02:15:12;4.90;1.00
21189;DHT22;39071;52.420;20.896;2022-10-13T02:17:39;4.80;1.00
21189;DHT22;39071;52.420;20.896;2022-10-13T02:20:07;4.90;1.00
21189;DHT22;39071;52.420;20.896;2022-10-13T02:22:37;4.90;99.90
21189;DHT22;39071;52.420;20.896;2022-10-13T02:25:04;4.80;99.90
21189;DHT22;39071;52.420;20.896;2022-10-13T02:27:30;4.80;99.90
21189;DHT22;39071;52.420;20.896;2022-10-13T02:29:56;4.80;99.90
21189;DHT22;39071;52.420;20.896;2022-10-13T02:32:22;4.70;99.90
21189;DHT22;39071;52.420;20.896;2022-10-13T02:34:49;4.70;99.90
21189;DHT22;39071;52.420;20.896;2022-10-13T02:37:15;4.70;99.90
21189;DHT22;39071;52.420;20.896;2022-10-13T02:39:41;4.70;99.90
21189;DHT22;39071;52.420;20.896;2022-10-13T02:42:07;4.70;1.00
21189;DHT22;39071;52.420;20.896;2022-10-13T02:44:33;4.70;1.00
21189;DHT22;39071;52.420;20.896;2022-10-13T02:46:59;4.70;99.90
21189;DHT22;39071;52.420;20.896;2022-10-13T02:49:25;4.60;1.00
21189;DHT22;39071;52.420;20.896;2022-10-13T02:51:51;4.60;1.00
21189;DHT22;39071;52.420;20.896;2022-10-13T02:54:18;4.50;15.40
21189;DHT22;39071;52.420;20.896;2022-10-13T02:56:44;4.50;99.90
21189;DHT22;39071;52.420;20.896;2022-10-13T02:59:09;4.60;99.90
21189;DHT22;39071;52.420;20.896;2022-10-13T03:01:36;4.40;1.00
21189;DHT22;39071;52.420;20.896;2022-10-13T03:04:07;4.40;39.30
21189;DHT22;39071;52.420;20.896;2022-10-13T03:06:33;4.40;1.00
21189;DHT22;39071;52.420;20.896;2022-10-13T03:08:58;4.40;1.00
21189;DHT22;39071;52.420;20.896;2022-10-13T03:11:24;4.40;1.00
21189;DHT22;39071;52.420;20.896;2022-10-13T03:13:50;4.40;1.00
21189;DHT22;39071;52.420;20.896;2022-10-13T03:16:16;4.30;1.00
21189;DHT22;39071;52.420;20.896;2022-10-13T03:18:42;4.30;1.00
21189;DHT22;39071;52.420;20.896;2022-10-13T03:21:09;4.30;1.00
21189;DHT22;39071;52.420;20.896;2022-10-13T03:23:35;4.20;1.00
21189;DHT22;39071;52.420;20.896;2022-10-13T03:26:01;4.20;1.00
21189;DHT22;39071;52.420;20.896;2022-10-13T03:28:27;4.10;1.00
21189;DHT22;39071;52.420;20.896;2022-10-13T03:31:00;4.10;1.00
21189;DHT22;39071;52.420;20.896;2022-10-13T03:33:26;4.00;99.90
21189;DHT22;39071;52.420;20.896;2022-10-13T03:35:52;3.90;93.20
21189;DHT22;39071;52.420;20.896;2022-10-13T03:38:18;3.90;99.90
21189;DHT22;39071;52.420;20.896;2022-10-13T03:40:44;3.90;1.00
21189;DHT22;39071;52.420;20.896;2022-10-13T03:43:09;3.90;1.00
21189;DHT22;39071;52.420;20.896;2022-10-13T03:45:35;3.80;1.00
21189;DHT22;39071;52.420;20.896;2022-10-13T03:48:01;3.80;1.00
21189;DHT22;39071;52.420;20.896;2022-10-13T03:50:27;3.80;1.00
21189;DHT22;39071;52.420;20.896;2022-10-13T03:52:52;3.80;1.00
21189;DHT22;39071;52.420;20.896;2022-10-13T03:55:18;3.70;1.00
21189;DHT22;39071;52.420;20.896;2022-10-13T03:57:44;3.80;1.00
21189;DHT22;39071;52.420;20.896;2022-10-13T04:00:10;3.70;26.70
21189;DHT22;39071;52.420;20.896;2022-10-13T04:02:36;3.80;67.60
21189;DHT22;39071;52.420;20.896;2022-10-13T04:05:02;3.80;99.90
21189;DHT22;39071;52.420;20.896;2022-10-13T04:07:28;3.80;99.90
21189;DHT22;39071;52.420;20.896;2022-10-13T04:09:53;3.80;99.90
21189;DHT22;39071;52.420;20.896;2022-10-13T04:12:19;3.80;1.00
21189;DHT22;39071;52.420;20.896;2022-10-13T04:14:45;3.70;1.00
21189;DHT22;39071;52.420;20.896;2022-10-13T04:17:10;3.70;1.00
21189;DHT22;39071;52.420;20.896;2022-10-13T04:19:37;3.70;1.00
21189;DHT22;39071;52.420;20.896;2022-10-13T04:22:03;3.70;1.00
21189;DHT22;39071;52.420;20.896;2022-10-13T04:24:29;3.70;1.00
21189;DHT22;39071;52.420;20.896;2022-10-13T04:26:55;3.70;1.00
21189;DHT22;39071;52.420;20.896;2022-10-13T04:29:20;3.70;1.00
21189;DHT22;39071;52.420;20.896;2022-10-13T04:31:46;3.70;1.00
21189;DHT22;39071;52.420;20.896;2022-10-13T04:34:12;3.70;1.00
21189;DHT22;39071;52.420;20.896;2022-10-13T04:36:38;3.70;1.00
21189;DHT22;39071;52.420;20.896;2022-10-13T04:39:04;3.70;1.00
21189;DHT22;39071;52.420;20.896;2022-10-13T04:41:29;3.70;1.00
21189;DHT22;39071;52.420;20.896;2022-10-13T04:43:55;3.70;99.90
21189;DHT22;39071;52.420;20.896;2022-10-13T04:46:24;3.60;1.00
21189;DHT22;39071;52.420;20.896;2022-10-13T04:48:51;3.60;1.00
21189;DHT22;39071;52.420;20.896;2022-10-13T04:51:19;3.60;99.90
21189;DHT22;39071;52.420;20.896;2022-10-13T04:53:46;3.60;99.90
21189;DHT22;39071;52.420;20.896;2022-10-13T04:56:15;3.60;99.90
21189;DHT22;39071;52.420;20.896;2022-10-13T04:58:43;3.60;99.90
21189;DHT22;39071;52.420;20.896;2022-10-13T05:01:15;3.60;99.90
21189;DHT22;39071;52.420;20.896;2022-10-13T05:03:41;3.60;99.90
21189;DHT22;39071;52.420;20.896;2022-10-13T05:06:16;3.60;99.90
21189;DHT22;39071;52.420;20.896;2022-10-13T05:08:42;3.60;1.00
21189;DHT22;39071;52.420;20.896;2022-10-13T05:11:09;3.60;1.00
21189;DHT22;39071;52.420;20.896;2022-10-13T05:13:35;3.60;99.90
21189;DHT22;39071;52.420;20.896;2022-10-13T05:16:05;3.60;99.90
21189;DHT22;39071;52.420;20.896;2022-10-13T05:18:32;3.60;99.90
21189;DHT22;39071;52.420;20.896;2022-10-13T05:21:15;3.60;99.90
21189;DHT22;39071;52.420;20.896;2022-10-13T05:23:41;3.70;99.90
21189;DHT22;39071;52.420;20.896;2022-10-13T05:26:12;3.80;99.90
21189;DHT22;39071;52.420;20.896;2022-10-13T05:28:39;3.80;99.90
21189;DHT22;39071;52.420;20.896;2022-10-13T05:31:13;3.80;99.90
21189;DHT22;39071;52.420;20.896;2022-10-13T05:33:40;3.90;99.90
21189;DHT22;39071;52.420;20.896;2022-10-13T05:36:12;3.90;99.90
21189;DHT22;39071;52.420;20.896;2022-10-13T05:38:38;3.90;1.00
21189;DHT22;39071;52.420;20.896;2022-10-13T05:41:08;4.00;7.80
21189;DHT22;39071;52.420;20.896;2022-10-13T05:43:34;4.00;12.60
21189;DHT22;39071;52.420;20.896;2022-10-13T05:46:00;4.00;99.90
21189;DHT22;39071;52.420;20.896;2022-10-13T05:48:27;4.10;3.90
21189;DHT22;39071;52.420;20.896;2022-10-13T05:50:54;4.10;99.90
21189;DHT22;39071;52.420;20.896;2022-10-13T05:53:23;4.10;99.90
21189;DHT22;39071;52.420;20.896;2022-10-13T05:55:51;4.20;99.90
21189;DHT22;39071;52.420;20.896;2022-10-13T05:58:17;4.30;99.90
21189;DHT22;39071;52.420;20.896;2022-10-13T06:00:44;4.40;99.90
21189;DHT22;39071;52.420;20.896;2022-10-13T06:03:13;4.50;1.00
21189;DHT22;39071;52.420;20.896;2022-10-13T06:05:41;4.50;1.00
21189;DHT22;39071;52.420;20.896;2022-10-13T06:08:09;4.60;1.00
21189;DHT22;39071;52.420;20.896;2022-10-13T06:10:36;4.60;92.50
21189;DHT22;39071;52.420;20.896;2022-10-13T06:13:02;4.70;99.90
21189;DHT22;39071;52.420;20.896;2022-10-13T06:15:28;4.80;1.00
21189;DHT22;39071;52.420;20.896;2022-10-13T06:17:53;4.90;1.00
21189;DHT22;39071;52.420;20.896;2022-10-13T06:20:19;5.00;1.00
21189;DHT22;39071;52.420;20.896;2022-10-13T06:22:45;5.00;1.00
21189;DHT22;39071;52.420;20.896;2022-10-13T06:25:13;5.10;1.00
21189;DHT22;39071;52.420;20.896;2022-10-13T06:27:38;5.20;1.00
21189;DHT22;39071;52.420;20.896;2022-10-13T06:30:04;5.30;99.90
21189;DHT22;39071;52.420;20.896;2022-10-13T06:32:30;5.40;99.90
21189;DHT22;39071;52.420;20.896;2022-10-13T06:34:56;5.50;99.90
21189;DHT22;39071;52.420;20.896;2022-10-13T06:37:22;5.60;99.90
21189;DHT22;39071;52.420;20.896;2022-10-13T06:39:47;5.70;1.00
21189;DHT22;39071;52.420;20.896;2022-10-13T06:42:13;5.90;1.00
21189;DHT22;39071;52.420;20.896;2022-10-13T06:44:39;6.10;1.00
21189;DHT22;39071;52.420;20.896;2022-10-13T06:47:05;6.20;1.00
21189;DHT22;39071;52.420;20.896;2022-10-13T06:49:30;6.40;1.00
21189;DHT22;39071;52.420;20.896;2022-10-13T06:51:56;6.60;1.00
21189;DHT22;39071;52.420;20.896;2022-10-13T06:54:22;6.80;1.00
21189;DHT22;39071;52.420;20.896;2022-10-13T06:56:48;7.20;1.00
21189;DHT22;39071;52.420;20.896;2022-10-13T06:59:14;7.50;1.00
21189;DHT22;39071;52.420;20.896;2022-10-13T07:01:39;7.80;1.00
21189;DHT22;39071;52.420;20.896;2022-10-13T07:04:05;8.00;1.00
21189;DHT22;39071;52.420;20.896;2022-10-13T07:06:31;8.30;1.00
21189;DHT22;39071;52.420;20.896;2022-10-13T07:08:56;8.60;32.20
21189;DHT22;39071;52.420;20.896;2022-10-13T07:11:22;9.00;1.00
21189;DHT22;39071;52.420;20.896;2022-10-13T07:13:48;9.40;1.00
21189;DHT22;39071;52.420;20.896;2022-10-13T07:16:14;10.30;1.00
21189;DHT22;39071;52.420;20.896;2022-10-13T07:18:40;11.20;1.00
21189;DHT22;39071;52.420;20.896;2022-10-13T07:21:06;12.20;99.90
21189;DHT22;39071;52.420;20.896;2022-10-13T07:23:32;13.20;99.90
21189;DHT22;39071;52.420;20.896;2022-10-13T07:25:57;14.30;1.00
21189;DHT22;39071;52.420;20.896;2022-10-13T07:28:24;14.80;99.90
21189;DHT22;39071;52.420;20.896;2022-10-13T07:30:50;15.70;1.00
21189;DHT22;39071;52.420;20.896;2022-10-13T07:33:17;16.30;1.00
21189;DHT22;39071;52.420;20.896;2022-10-13T07:35:43;17.00;1.00
21189;DHT22;39071;52.420;20.896;2022-10-13T07:38:09;17.40;1.00
21189;DHT22;39071;52.420;20.896;2022-10-13T07:40:35;17.20;99.90
21189;DHT22;39071;52.420;20.896;2022-10-13T07:43:00;17.50;99.90
21189;DHT22;39071;52.420;20.896;2022-10-13T07:45:27;17.50;99.90
21189;DHT22;39071;52.420;20.896;2022-10-13T07:47:53;17.80;99.90
21189;DHT22;39071;52.420;20.896;2022-10-13T07:50:19;18.00;99.90
21189;DHT22;39071;52.420;20.896;2022-10-13T07:52:44;18.30;99.90
21189;DHT22;39071;52.420;20.896;2022-10-13T07:55:11;18.00;99.90
21189;DHT22;39071;52.420;20.896;2022-10-13T07:57:37;18.20;99.90
21189;DHT22;39071;52.420;20.896;2022-10-13T08:00:04;18.40;99.90
21189;DHT22;39071;52.420;20.896;2022-10-13T08:02:31;18.40;99.90
21189;DHT22;39071;52.420;20.896;2022-10-13T08:04:57;18.20;99.90
21189;DHT22;39071;52.420;20.896;2022-10-13T08:07:22;18.00;99.90
21189;DHT22;39071;52.420;20.896;2022-10-13T08:09:48;17.70;99.90
21189;DHT22;39071;52.420;20.896;2022-10-13T08:12:14;17.80;99.90
21189;DHT22;39071;52.420;20.896;2022-10-13T08:14:40;18.00;99.90
21189;DHT22;39071;52.420;20.896;2022-10-13T08:17:06;18.10;99.90
21189;DHT22;39071;52.420;20.896;2022-10-13T08:19:32;18.10;99.90
21189;DHT22;39071;52.420;20.896;2022-10-13T08:21:58;18.20;99.90
21189;DHT22;39071;52.420;20.896;2022-10-13T08:24:24;18.30;99.90
21189;DHT22;39071;52.420;20.896;2022-10-13T08:26:50;17.50;99.90
21189;DHT22;39071;52.420;20.896;2022-10-13T08:29:16;17.70;99.90
21189;DHT22;39071;52.420;20.896;2022-10-13T08:31:42;17.80;99.90
21189;DHT22;39071;52.420;20.896;2022-10-13T08:34:09;18.00;99.90
21189;DHT22;39071;52.420;20.896;2022-10-13T08:36:36;18.00;99.90
21189;DHT22;39071;52.420;20.896;2022-10-13T08:39:03;18.10;99.90
21189;DHT22;39071;52.420;20.896;2022-10-13T08:41:37;17.90;73.80
21189;DHT22;39071;52.420;20.896;2022-10-13T08:44:15;17.70;56.40
21189;DHT22;39071;52.420;20.896;2022-10-13T08:49:33;17.60;28.40
21189;DHT22;39071;52.420;20.896;2022-10-13T08:52:02;17.70;25.00
21189;DHT22;39071;52.420;20.896;2022-10-13T08:54:29;17.90;28.10
21189;DHT22;39071;52.420;20.896;2022-10-13T08:56:55;17.90;13.30
21189;DHT22;39071;52.420;20.896;2022-10-13T08:59:20;18.10;1.00
21189;DHT22;39071;52.420;20.896;2022-10-13T09:01:47;18.10;1.00
21189;DHT22;39071;52.420;20.896;2022-10-13T09:04:34;18.20;1.00
21189;DHT22;39071;52.420;20.896;2022-10-13T09:09:34;18.00;1.00
21189;DHT22;39071;52.420;20.896;2022-10-13T09:12:01;17.90;1.00
21189;DHT22;39071;52.420;20.896;2022-10-13T09:17:11;18.10;1.00
21189;DHT22;39071;52.420;20.896;2022-10-13T09:19:37;18.40;1.00
21189;DHT22;39071;52.420;20.896;2022-10-13T09:22:28;18.30;1.00
21189;DHT22;39071;52.420;20.896;2022-10-13T09:28:16;18.30;1.00
21189;DHT22;39071;52.420;20.896;2022-10-13T09:30:43;18.50;1.00
21189;DHT22;39071;52.420;20.896;2022-10-13T09:38:04;18.40;1.00
21189;DHT22;39071;52.420;20.896;2022-10-13T09:40:30;18.30;1.00
21189;DHT22;39071;52.420;20.896;2022-10-13T09:42:57;18.60;1.00
21189;DHT22;39071;52.420;20.896;2022-10-13T09:45:25;18.50;1.00
21189;DHT22;39071;52.420;20.896;2022-10-13T09:47:58;18.30;1.00
21189;DHT22;39071;52.420;20.896;2022-10-13T09:50:28;18.30;1.00
21189;DHT22;39071;52.420;20.896;2022-10-13T09:53:23;18.00;1.00
21189;DHT22;39071;52.420;20.896;2022-10-13T09:55:51;18.00;1.00
21189;DHT22;39071;52.420;20.896;2022-10-13T09:58:33;17.80;1.00
21189;DHT22;39071;52.420;20.896;2022-10-13T10:01:01;18.10;1.00
21189;DHT22;39071;52.420;20.896;2022-10-13T10:03:34;17.90;1.00
21189;DHT22;39071;52.420;20.896;2022-10-13T10:10:53;17.80;1.00
21189;DHT22;39071;52.420;20.896;2022-10-13T10:13:19;17.80;1.00
21189;DHT22;39071;52.420;20.896;2022-10-13T10:18:37;17.90;1.00
21189;DHT22;39071;52.420;20.896;2022-10-13T10:26:21;17.50;1.00
21189;DHT22;39071;52.420;20.896;2022-10-13T10:31:35;17.10;1.00
21189;DHT22;39071;52.420;20.896;2022-10-13T10:37:14;17.00;1.00
21189;DHT22;39071;52.420;20.896;2022-10-13T10:39:53;17.30;1.00
21189;DHT22;39071;52.420;20.896;2022-10-13T10:45:17;17.40;1.00
21189;DHT22;39071;52.420;20.896;2022-10-13T10:47:46;17.30;1.00
21189;DHT22;39071;52.420;20.896;2022-10-13T10:50:17;17.30;1.00
21189;DHT22;39071;52.420;20.896;2022-10-13T10:55:51;17.30;1.00
21189;DHT22;39071;52.420;20.896;2022-10-13T11:08:42;17.40;1.00
21189;DHT22;39071;52.420;20.896;2022-10-13T11:16:38;17.60;1.00
21189;DHT22;39071;52.420;20.896;2022-10-13T11:45:40;17.50;1.00
21189;DHT22;39071;52.420;20.896;2022-10-13T11:53:47;17.40;1.00
21189;DHT22;39071;52.420;20.896;2022-10-13T11:56:32;17.30;1.00
21189;DHT22;39071;52.420;20.896;2022-10-13T11:58:58;17.40;1.00
21189;DHT22;39071;52.420;20.896;2022-10-13T12:01:24;17.60;1.00
21189;DHT22;39071;52.420;20.896;2022-10-13T12:03:49;17.20;1.00
21189;DHT22;39071;52.420;20.896;2022-10-13T12:09:03;17.20;1.00
21189;DHT22;39071;52.420;20.896;2022-10-13T12:11:34;17.20;1.00
21189;DHT22;39071;52.420;20.896;2022-10-13T12:14:01;17.20;1.00
21189;DHT22;39071;52.420;20.896;2022-10-13T12:16:28;17.40;1.00
21189;DHT22;39071;52.420;20.896;2022-10-13T12:19:07;17.30;1.00
21189;DHT22;39071;52.420;20.896;2022-10-13T12:21:33;17.40;1.00
21189;DHT22;39071;52.420;20.896;2022-10-13T12:24:07;17.50;1.00
21189;DHT22;39071;52.420;20.896;2022-10-13T12:26:33;17.70;1.00
21189;DHT22;39071;52.420;20.896;2022-10-13T12:29:04;17.80;1.00
21189;DHT22;39071;52.420;20.896;2022-10-13T12:31:46;17.80;1.00
21189;DHT22;39071;52.420;20.896;2022-10-13T12:34:27;17.60;1.00
21189;DHT22;39071;52.420;20.896;2022-10-13T12:36:57;17.60;1.00
21189;DHT22;39071;52.420;20.896;2022-10-13T12:39:24;17.60;1.00
21189;DHT22;39071;52.420;20.896;2022-10-13T12:41:52;17.60;1.00
21189;DHT22;39071;52.420;20.896;2022-10-13T12:44:25;17.40;1.00
21189;DHT22;39071;52.420;20.896;2022-10-13T12:46:53;17.40;1.00
21189;DHT22;39071;52.420;20.896;2022-10-13T12:49:23;17.40;1.00
21189;DHT22;39071;52.420;20.896;2022-10-13T12:52:03;17.30;1.00
21189;DHT22;39071;52.420;20.896;2022-10-13T12:54:34;17.40;1.00
21189;DHT22;39071;52.420;20.896;2022-10-13T13:00:22;17.20;1.00
21189;DHT22;39071;52.420;20.896;2022-10-13T13:03:18;17.20;1.00
21189;DHT22;39071;52.420;20.896;2022-10-13T13:05:46;17.40;1.00
21189;DHT22;39071;52.420;20.896;2022-10-13T13:08:28;17.10;1.00
21189;DHT22;39071;52.420;20.896;2022-10-13T13:11:02;16.90;1.00
21189;DHT22;39071;52.420;20.896;2022-10-13T13:13:28;17.00;1.00
21189;DHT22;39071;52.420;20.896;2022-10-13T13:16:20;17.00;1.00
21189;DHT22;39071;52.420;20.896;2022-10-13T13:18:51;17.00;1.00
21189;DHT22;39071;52.420;20.896;2022-10-13T13:21:18;17.10;1.00
21189;DHT22;39071;52.420;20.896;2022-10-13T13:23:46;17.20;1.00
21189;DHT22;39071;52.420;20.896;2022-10-13T13:26:18;17.00;1.00
21189;DHT22;39071;52.420;20.896;2022-10-13T13:28:52;17.00;1.00
21189;DHT22;39071;52.420;20.896;2022-10-13T13:31:20;16.80;1.00
21189;DHT22;39071;52.420;20.896;2022-10-13T13:33:46;15.70;1.00
21189;DHT22;39071;52.420;20.896;2022-10-13T13:36:23;16.70;1.00
21189;DHT22;39071;52.420;20.896;2022-10-13T13:38:51;16.70;1.00
21189;DHT22;39071;52.420;20.896;2022-10-13T13:41:17;16.70;1.00
21189;DHT22;39071;52.420;20.896;2022-10-13T13:43:43;16.80;1.00
21189;DHT22;39071;52.420;20.896;2022-10-13T13:46:15;16.90;1.00
21189;DHT22;39071;52.420;20.896;2022-10-13T13:48:41;16.90;1.00
21189;DHT22;39071;52.420;20.896;2022-10-13T13:51:10;16.90;1.00
21189;DHT22;39071;52.420;20.896;2022-10-13T13:53:36;16.70;1.00
21189;DHT22;39071;52.420;20.896;2022-10-13T13:56:02;16.70;1.00
21189;DHT22;39071;52.420;20.896;2022-10-13T13:58:28;16.60;1.00
21189;DHT22;39071;52.420;20.896;2022-10-13T14:00:54;16.60;1.00
21189;DHT22;39071;52.420;20.896;2022-10-13T14:03:19;16.50;1.00
21189;DHT22;39071;52.420;20.896;2022-10-13T14:05:45;16.50;1.00
21189;DHT22;39071;52.420;20.896;2022-10-13T14:08:11;16.30;1.00
21189;DHT22;39071;52.420;20.896;2022-10-13T14:10:38;16.30;1.00
21189;DHT22;39071;52.420;20.896;2022-10-13T14:13:05;16.20;1.00
21189;DHT22;39071;52.420;20.896;2022-10-13T14:15:31;16.40;1.00
21189;DHT22;39071;52.420;20.896;2022-10-13T14:17:57;16.20;1.00
21189;DHT22;39071;52.420;20.896;2022-10-13T14:20:22;16.10;1.00
21189;DHT22;39071;52.420;20.896;2022-10-13T14:22:48;16.10;1.00
21189;DHT22;39071;52.420;20.896;2022-10-13T14:25:14;15.90;1.00
21189;DHT22;39071;52.420;20.896;2022-10-13T14:27:40;15.80;1.00
21189;DHT22;39071;52.420;20.896;2022-10-13T14:30:07;15.80;1.00
21189;DHT22;39071;52.420;20.896;2022-10-13T14:32:35;15.70;1.00
21189;DHT22;39071;52.420;20.896;2022-10-13T14:35:00;15.70;1.00
21189;DHT22;39071;52.420;20.896;2022-10-13T14:37:26;15.60;1.00
21189;DHT22;39071;52.420;20.896;2022-10-13T14:39:52;15.70;1.00
21189;DHT22;39071;52.420;20.896;2022-10-13T14:42:17;15.60;1.00
21189;DHT22;39071;52.420;20.896;2022-10-13T14:44:43;15.60;1.00
21189;DHT22;39071;52.420;20.896;2022-10-13T14:47:09;15.50;1.00
21189;DHT22;39071;52.420;20.896;2022-10-13T14:49:35;15.50;1.00
21189;DHT22;39071;52.420;20.896;2022-10-13T14:52:01;15.30;1.00
21189;DHT22;39071;52.420;20.896;2022-10-13T14:54:26;15.30;1.00
21189;DHT22;39071;52.420;20.896;2022-10-13T14:56:52;15.30;1.00
21189;DHT22;39071;52.420;20.896;2022-10-13T14:59:18;15.30;1.00
21189;DHT22;39071;52.420;20.896;2022-10-13T15:01:46;15.40;1.00
21189;DHT22;39071;52.420;20.896;2022-10-13T15:04:12;15.40;1.00
21189;DHT22;39071;52.420;20.896;2022-10-13T15:06:39;15.30;1.00
21189;DHT22;39071;52.420;20.896;2022-10-13T15:09:05;15.20;1.00
21189;DHT22;39071;52.420;20.896;2022-10-13T15:11:31;15.20;1.00
21189;DHT22;39071;52.420;20.896;2022-10-13T15:13:57;15.30;1.00
21189;DHT22;39071;52.420;20.896;2022-10-13T15:16:28;15.20;1.00
21189;DHT22;39071;52.420;20.896;2022-10-13T15:18:55;15.10;1.00
21189;DHT22;39071;52.420;20.896;2022-10-13T15:21:22;14.90;1.00
21189;DHT22;39071;52.420;20.896;2022-10-13T15:23:49;15.00;1.00
21189;DHT22;39071;52.420;20.896;2022-10-13T15:26:18;14.90;22.40
21189;DHT22;39071;52.420;20.896;2022-10-13T15:28:47;14.80;14.50
21189;DHT22;39071;52.420;20.896;2022-10-13T15:31:14;14.80;52.50
21189;DHT22;39071;52.420;20.896;2022-10-13T15:33:42;14.80;68.50
21189;DHT22;39071;52.420;20.896;2022-10-13T15:36:09;14.70;99.90
21189;DHT22;39071;52.420;20.896;2022-10-13T15:38:34;14.60;99.90
21189;DHT22;39071;52.420;20.896;2022-10-13T15:41:02;14.50;99.90
21189;DHT22;39071;52.420;20.896;2022-10-13T15:43:28;14.40;99.90
21189;DHT22;39071;52.420;20.896;2022-10-13T15:45:59;14.20;99.90
21189;DHT22;39071;52.420;20.896;2022-10-13T15:48:25;14.00;99.90
21189;DHT22;39071;52.420;20.896;2022-10-13T15:50:51;13.80;99.90
21189;DHT22;39071;52.420;20.896;2022-10-13T15:53:17;13.60;1.00
21189;DHT22;39071;52.420;20.896;2022-10-13T15:55:45;13.40;1.00
21189;DHT22;39071;52.420;20.896;2022-10-13T15:58:11;13.20;1.00
21189;DHT22;39071;52.420;20.896;2022-10-13T16:00:37;13.00;1.00
21189;DHT22;39071;52.420;20.896;2022-10-13T16:03:05;12.80;99.90
21189;DHT22;39071;52.420;20.896;2022-10-13T16:05:31;12.60;99.90
21189;DHT22;39071;52.420;20.896;2022-10-13T16:07:56;12.50;1.00
21189;DHT22;39071;52.420;20.896;2022-10-13T16:10:22;12.30;1.00
21189;DHT22;39071;52.420;20.896;2022-10-13T16:12:48;12.10;1.00
21189;DHT22;39071;52.420;20.896;2022-10-13T16:15:15;12.00;99.90
21189;DHT22;39071;52.420;20.896;2022-10-13T16:17:41;11.80;1.00
21189;DHT22;39071;52.420;20.896;2022-10-13T16:20:10;11.60;1.00
21189;DHT22;39071;52.420;20.896;2022-10-13T16:22:36;11.50;22.20
21189;DHT22;39071;52.420;20.896;2022-10-13T16:25:02;11.40;99.90
21189;DHT22;39071;52.420;20.896;2022-10-13T16:27:28;11.30;1.00
21189;DHT22;39071;52.420;20.896;2022-10-13T16:29:54;11.20;1.00
21189;DHT22;39071;52.420;20.896;2022-10-13T16:32:20;11.00;1.00
21189;DHT22;39071;52.420;20.896;2022-10-13T16:34:46;10.90;99.90
21189;DHT22;39071;52.420;20.896;2022-10-13T16:37:13;10.70;99.90
21189;DHT22;39071;52.420;20.896;2022-10-13T16:39:38;10.60;1.00
21189;DHT22;39071;52.420;20.896;2022-10-13T16:42:04;10.50;69.90
21189;DHT22;39071;52.420;20.896;2022-10-13T16:44:30;10.40;99.90
21189;DHT22;39071;52.420;20.896;2022-10-13T16:46:56;10.30;1.00
21189;DHT22;39071;52.420;20.896;2022-10-13T16:49:23;10.20;1.00
21189;DHT22;39071;52.420;20.896;2022-10-13T16:51:48;10.10;99.90
21189;DHT22;39071;52.420;20.896;2022-10-13T16:54:14;10.00;1.00
21189;DHT22;39071;52.420;20.896;2022-10-13T16:56:40;9.80;1.00
21189;DHT22;39071;52.420;20.896;2022-10-13T16:59:06;9.80;1.00
21189;DHT22;39071;52.420;20.896;2022-10-13T17:01:33;9.80;99.90
21189;DHT22;39071;52.420;20.896;2022-10-13T17:03:59;9.70;99.90
21189;DHT22;39071;52.420;20.896;2022-10-13T17:06:27;9.70;1.00
21189;DHT22;39071;52.420;20.896;2022-10-13T17:08:56;9.70;1.00
21189;DHT22;39071;52.420;20.896;2022-10-13T17:11:25;9.60;99.90
21189;DHT22;39071;52.420;20.896;2022-10-13T17:13:52;9.50;99.90
21189;DHT22;39071;52.420;20.896;2022-10-13T17:16:18;9.40;1.00
21189;DHT22;39071;52.420;20.896;2022-10-13T17:18:45;9.40;1.00
21189;DHT22;39071;52.420;20.896;2022-10-13T17:21:13;9.30;1.00
21189;DHT22;39071;52.420;20.896;2022-10-13T17:23:39;9.20;1.00
21189;DHT22;39071;52.420;20.896;2022-10-13T17:26:09;9.10;1.00
21189;DHT22;39071;52.420;20.896;2022-10-13T17:28:35;9.10;1.00
21189;DHT22;39071;52.420;20.896;2022-10-13T17:31:06;9.00;99.90
21189;DHT22;39071;52.420;20.896;2022-10-13T17:33:35;9.00;99.90
21189;DHT22;39071;52.420;20.896;2022-10-13T17:36:06;9.00;99.90
21189;DHT22;39071;52.420;20.896;2022-10-13T17:38:33;8.80;99.90
21189;DHT22;39071;52.420;20.896;2022-10-13T17:41:00;8.80;99.90
21189;DHT22;39071;52.420;20.896;2022-10-13T17:43:26;8.70;1.00
21189;DHT22;39071;52.420;20.896;2022-10-13T17:45:52;8.60;1.00